Time;durP1;ratioP1;P1;durP2;ratioP2;P2;SDS_P1;SDS_P2;PMS_P1;PMS_P2;Temp;Humidity;BMP_temperature;BMP_pressure;BME280_temperature;BME280_humidity;BME280_pressure;Samples;Min_cycle;Max_cycle;Signal;HPM_P1;HPM_P2
2022/06/02 00:00:59;;;;;;;2.80;1.10;;;;;;;17.78;55.68;100218.44;5009785;28;20030;-63
2022/06/02 00:03:34;;;;;;;2.95;1.05;;;;;;;17.76;54.73;100214.97;5010915;28;20405;-63
2022/06/02 00:06:13;;;;;;;1.95;1.10;;;;;;;17.74;54.76;100216.88;5009796;28;20464;-63
2022/06/02 00:08:54;;;;;;;4.03;1.02;;;;;;;17.73;54.69;100207.09;5010310;28;20406;-63
2022/06/02 00:11:29;;;;;;;3.25;1.10;;;;;;;17.80;54.72;100211.16;5009905;28;20105;-63
2022/06/02 00:14:00;;;;;;;1.70;1.20;;;;;;;17.76;55.15;100211.44;5010102;28;20397;-63
2022/06/02 00:16:34;;;;;;;2.15;1.10;;;;;;;17.75;55.20;100212.38;5009625;28;20053;-63
2022/06/02 00:19:09;;;;;;;2.55;1.40;;;;;;;17.65;55.80;100211.19;5009919;28;20405;-63
2022/06/02 00:21:44;;;;;;;2.13;1.02;;;;;;;17.65;55.01;100201.28;5011300;28;20040;-63
2022/06/02 00:24:33;;;;;;;2.53;1.10;;;;;;;17.66;56.07;100202.16;5011590;28;20030;-63
2022/06/02 00:27:07;;;;;;;2.58;1.40;;;;;;;17.61;55.55;100218.56;4993862;28;20084;-63
2022/06/02 00:29:35;;;;;;;2.97;1.23;;;;;;;17.60;56.04;100210.56;5011767;28;20033;-63
2022/06/02 00:32:08;;;;;;;3.15;0.88;;;;;;;17.54;55.79;100219.91;5011906;28;20485;-64
2022/06/02 00:34:41;;;;;;;4.25;1.77;;;;;;;17.51;56.82;100219.19;5011709;28;20058;-63
2022/06/02 00:37:15;;;;;;;1.88;1.27;;;;;;;17.51;57.05;100216.50;5011518;28;20026;-63
2022/06/02 00:39:40;;;;;;;2.88;1.33;;;;;;;17.48;56.86;100211.31;5011461;28;20076;-63
2022/06/02 00:42:24;;;;;;;4.93;1.10;;;;;;;17.43;57.11;100210.69;5011377;28;20029;-63
2022/06/02 00:44:55;;;;;;;3.53;1.20;;;;;;;17.45;57.36;100220.41;5011179;28;20037;-63
2022/06/02 00:47:31;;;;;;;2.75;1.20;;;;;;;17.48;57.28;100230.97;5011304;28;20038;-63
2022/06/02 00:50:08;;;;;;;3.40;1.52;;;;;;;17.47;57.45;100229.25;5011498;28;20084;-63
2022/06/02 00:53:11;;;;;;;2.00;1.10;;;;;;;17.46;57.04;100232.88;5011230;28;20032;-63
2022/06/02 00:58:59;;;;;;;4.03;1.20;;;;;;;17.45;57.56;100231.16;5011540;28;20394;-64
2022/06/02 01:01:31;;;;;;;2.25;1.40;;;;;;;17.41;57.39;100224.22;5011270;28;20094;-63
2022/06/02 01:04:00;;;;;;;1.92;1.52;;;;;;;17.34;58.15;100228.19;5011142;28;20030;-64
2022/06/02 01:06:47;;;;;;;2.33;1.40;;;;;;;17.27;57.42;100226.78;4993571;28;20180;-64
2022/06/02 01:09:31;;;;;;;2.03;1.33;;;;;;;17.28;59.22;100223.13;5010876;28;20393;-64
2022/06/02 01:12:06;;;;;;;3.92;1.50;;;;;;;17.28;57.78;100222.31;5010810;28;20401;-64
2022/06/02 01:14:34;;;;;;;4.40;1.75;;;;;;;17.29;58.59;100224.91;5011392;28;20013;-64
2022/06/02 01:17:18;;;;;;;2.25;1.42;;;;;;;17.24;58.65;100221.59;5011116;28;20548;-64
2022/06/02 01:20:03;;;;;;;2.83;1.63;;;;;;;17.23;59.21;100225.25;5014033;28;20093;-64
2022/06/02 01:22:55;;;;;;;3.45;1.50;;;;;;;17.23;58.16;100219.00;5012342;28;20030;-64
2022/06/02 01:25:48;;;;;;;1.83;1.30;;;;;;;17.19;58.02;100218.31;5013093;28;20050;-64
2022/06/02 01:28:38;;;;;;;4.97;1.75;;;;;;;17.16;58.02;100229.22;5012842;28;20025;-64
2022/06/02 01:31:44;;;;;;;1.67;1.33;;;;;;;17.18;57.41;100221.97;5013364;28;20038;-63
2022/06/02 01:34:38;;;;;;;2.30;1.50;;;;;;;17.09;58.63;100228.72;5012686;28;20037;-63
2022/06/02 01:37:10;;;;;;;2.13;1.35;;;;;;;17.07;57.98;100225.22;5013000;28;20109;-64
2022/06/02 01:39:44;;;;;;;2.15;1.60;;;;;;;17.06;57.98;100230.69;5013392;28;20025;-64
2022/06/02 01:42:26;;;;;;;2.67;1.63;;;;;;;17.03;58.36;100229.03;5012924;28;20109;-63
2022/06/02 01:45:11;;;;;;;2.35;1.65;;;;;;;17.03;58.25;100233.56;5012949;28;20034;-64
2022/06/02 01:47:40;;;;;;;3.05;1.52;;;;;;;16.98;59.03;100241.00;5012937;28;20022;-64
2022/06/02 01:50:17;;;;;;;1.67;1.30;;;;;;;17.04;58.48;100246.03;5013820;28;20038;-64
2022/06/02 01:52:52;;;;;;;4.03;1.58;;;;;;;17.01;59.34;100241.72;5014720;28;20080;-63
2022/06/02 01:55:34;;;;;;;4.40;1.80;;;;;;;17.02;58.82;100243.44;5014475;28;20496;-63
2022/06/02 01:58:10;;;;;;;4.43;1.80;;;;;;;17.02;58.67;100245.25;4994916;28;20030;-63
2022/06/02 02:00:37;;;;;;;1.92;1.52;;;;;;;17.04;58.92;100251.41;5013160;28;20036;-63
2022/06/02 02:03:40;;;;;;;4.35;1.80;;;;;;;17.02;59.38;100247.94;5014057;28;20076;-63
2022/06/02 02:06:22;;;;;;;3.85;1.70;;;;;;;17.02;59.24;100242.56;4983140;28;20416;-64
2022/06/02 02:09:11;;;;;;;3.05;1.73;;;;;;;17.06;59.86;100244.13;5011780;28;20397;-64
2022/06/02 02:11:45;;;;;;;2.25;1.17;;;;;;;17.03;59.72;100250.53;5014195;28;20034;-63
2022/06/02 02:14:20;;;;;;;3.10;1.83;;;;;;;16.99;59.48;100231.97;5013806;28;20022;-63
2022/06/02 02:17:04;;;;;;;4.13;1.60;;;;;;;16.96;59.78;100237.53;5014032;28;20033;-63
2022/06/02 02:19:59;;;;;;;2.63;1.52;;;;;;;16.98;59.10;100247.22;5013861;28;20437;-63
2022/06/02 02:22:33;;;;;;;5.93;2.00;;;;;;;16.94;59.73;100240.31;5013832;28;20042;-64
2022/06/02 02:25:01;;;;;;;4.70;1.75;;;;;;;17.04;59.30;100256.78;5013352;28;20058;-64
2022/06/02 02:28:15;;;;;;;2.92;1.80;;;;;;;17.02;59.91;100237.19;5012572;28;20026;-63
2022/06/02 02:30:43;;;;;;;2.05;1.45;;;;;;;16.93;59.48;100248.44;4951976;29;20046;-64
2022/06/02 02:33:47;;;;;;;3.45;1.58;;;;;;;16.95;59.84;100246.56;5000608;28;20044;-64
2022/06/02 02:36:46;;;;;;;5.22;1.65;;;;;;;16.92;59.69;100257.44;5012790;28;20025;-64
2022/06/02 02:39:29;;;;;;;3.60;1.80;;;;;;;16.86;60.67;100252.41;5012131;28;20030;-64
2022/06/02 02:42:17;;;;;;;4.17;1.87;;;;;;;16.82;61.61;100256.19;5012532;28;20026;-64
2022/06/02 02:45:24;;;;;;;4.55;2.10;;;;;;;16.81;61.23;100249.09;5012440;28;20289;-63
2022/06/02 02:48:01;;;;;;;3.03;1.75;;;;;;;16.78;60.86;100251.97;5012242;28;20021;-63
2022/06/02 02:50:39;;;;;;;2.67;1.80;;;;;;;16.83;61.29;100255.28;5012402;28;20032;-64
2022/06/02 02:53:21;;;;;;;2.67;1.88;;;;;;;16.84;61.14;100259.69;5012328;28;20100;-64
2022/06/02 02:55:58;;;;;;;6.20;1.80;;;;;;;16.79;61.21;100259.06;5012772;28;20544;-64
2022/06/02 02:58:44;;;;;;;4.07;2.15;;;;;;;16.74;61.83;100258.44;5011753;28;20083;-62
2022/06/02 03:01:59;;;;;;;2.78;1.90;;;;;;;16.74;61.46;100263.81;4992644;28;20064;-61
2022/06/02 03:04:51;;;;;;;3.25;1.83;;;;;;;16.75;61.58;100258.34;4966092;28;20082;-62
2022/06/02 03:07:18;;;;;;;3.38;1.70;;;;;;;16.76;61.78;100256.53;4991253;28;20034;-63
2022/06/02 03:10:07;;;;;;;4.35;2.10;;;;;;;16.75;61.93;100262.88;4991113;28;20505;-63
2022/06/02 03:12:52;;;;;;;4.90;2.05;;;;;;;16.73;61.69;100257.59;5004466;28;20064;-63
2022/06/02 03:15:34;;;;;;;3.60;1.88;;;;;;;16.74;62.81;100253.94;5010433;28;20053;-63
2022/06/02 03:18:37;;;;;;;4.38;1.95;;;;;;;16.71;63.21;100248.75;5010179;28;20044;-63
2022/06/02 03:21:28;;;;;;;4.55;2.40;;;;;;;16.70;63.44;100251.50;4949720;29;20038;-63
2022/06/02 03:24:02;;;;;;;3.00;1.90;;;;;;;16.65;63.76;100249.09;5008923;28;20038;-63
2022/06/02 03:26:45;;;;;;;4.40;2.30;;;;;;;16.62;64.66;100248.38;4970897;28;1141709;-62
2022/06/02 03:29:49;;;;;;;3.80;2.13;;;;;;;16.59;64.12;100251.22;5010542;28;20409;-62
2022/06/02 03:32:36;;;;;;;3.88;2.20;;;;;;;16.49;64.43;100248.13;5010761;28;20065;-62
2022/06/02 03:35:10;;;;;;;4.03;2.45;;;;;;;16.46;64.81;100258.16;5011290;28;20393;-62
2022/06/02 03:37:54;;;;;;;4.95;2.30;;;;;;;16.36;65.10;100256.91;5012222;28;20049;-63
2022/06/02 03:40:33;;;;;;;7.10;3.40;;;;;;;16.31;65.59;100257.13;5011768;28;20022;-63
2022/06/02 03:43:37;;;;;;;7.43;2.25;;;;;;;16.30;65.64;100258.09;5012085;28;20111;-63
2022/06/02 03:46:06;;;;;;;4.78;2.30;;;;;;;16.31;64.62;100258.97;5009021;28;20042;-62
2022/06/02 03:48:49;;;;;;;7.40;2.33;;;;;;;16.32;65.98;100263.38;5012225;28;20112;-63
2022/06/02 03:51:34;;;;;;;4.22;2.42;;;;;;;16.34;66.26;100265.00;5012453;28;20045;-63
2022/06/02 03:54:18;;;;;;;15.98;2.85;;;;;;;16.37;65.60;100269.38;5012283;28;20140;-63
2022/06/02 03:57:11;;;;;;;11.77;2.45;;;;;;;16.34;65.69;100262.34;5012359;28;20052;-62
2022/06/02 03:59:43;;;;;;;4.20;2.42;;;;;;;16.38;65.61;100271.09;5011862;28;20056;-62
2022/06/02 04:02:14;;;;;;;7.57;2.40;;;;;;;16.38;65.82;100263.03;4992940;28;20453;-62
2022/06/02 04:05:06;;;;;;;3.58;2.45;;;;;;;16.34;65.44;100262.34;4998277;28;20389;-63
2022/06/02 04:07:44;;;;;;;7.45;2.25;;;;;;;16.33;65.81;100255.25;5011910;28;20026;-63
2022/06/02 04:10:31;;;;;;;5.40;2.40;;;;;;;16.36;66.26;100262.28;4994115;28;20068;-62
2022/06/02 04:13:39;;;;;;;3.55;2.25;;;;;;;16.28;65.42;100265.34;5011697;28;20131;-62
2022/06/02 04:16:35;;;;;;;7.15;2.63;;;;;;;16.26;65.82;100261.03;5011905;28;20025;-62
2022/06/02 04:22:49;;;;;;;6.25;2.50;;;;;;;16.24;66.01;100254.84;4988312;28;20038;-62
2022/06/02 04:25:49;;;;;;;2.88;2.05;;;;;;;16.24;66.97;100257.53;4991785;28;20117;-62
2022/06/02 04:28:30;;;;;;;5.72;2.80;;;;;;;16.21;66.36;100263.06;4992059;28;20042;-61
2022/06/02 04:31:29;;;;;;;3.88;2.63;;;;;;;16.26;66.41;100252.97;4991986;28;20145;-62
2022/06/02 04:33:57;;;;;;;3.63;2.15;;;;;;;16.18;66.37;100253.34;4991799;28;20074;-62
2022/06/02 04:36:31;;;;;;;6.88;1.90;;;;;;;16.22;66.20;100256.75;4992062;28;20037;-62
2022/06/02 04:39:26;;;;;;;4.60;2.38;;;;;;;16.26;65.95;100266.38;4991899;28;20026;-62
2022/06/02 04:42:08;;;;;;;2.95;2.00;;;;;;;16.23;67.55;100271.88;4991867;28;20049;-62
2022/06/02 04:44:52;;;;;;;4.50;2.58;;;;;;;16.18;66.81;100263.19;4991659;28;20035;-62
2022/06/02 04:47:34;;;;;;;3.17;2.08;;;;;;;16.24;66.26;100270.97;4991873;28;20490;-62
2022/06/02 04:50:10;;;;;;;4.28;2.30;;;;;;;16.34;67.90;100264.16;4991769;28;20034;-62
2022/06/02 04:52:54;;;;;;;6.65;2.50;;;;;;;16.36;67.40;100275.69;4995471;28;20485;-62
2022/06/02 04:55:42;;;;;;;4.70;2.35;;;;;;;16.38;66.99;100271.97;5011411;28;20025;-62
2022/06/02 04:58:43;;;;;;;4.43;2.10;;;;;;;16.43;67.62;100269.03;5011279;28;20033;-62
2022/06/02 05:01:23;;;;;;;4.32;2.50;;;;;;;16.48;66.23;100272.38;4995188;28;20687;-62
2022/06/02 05:04:15;;;;;;;4.72;2.30;;;;;;;16.54;66.80;100278.31;5011445;28;20068;-62
2022/06/02 05:07:12;;;;;;;4.32;2.17;;;;;;;16.58;66.35;100279.03;5011190;28;20106;-62
2022/06/02 05:10:11;;;;;;;8.63;2.38;;;;;;;16.68;65.17;100280.28;5011325;28;20030;-62
2022/06/02 05:13:15;;;;;;;6.53;2.17;;;;;;;16.81;65.89;100287.59;4991573;28;20109;-62
2022/06/02 05:15:59;;;;;;;;;;;;;;;16.96;65.78;100276.03;4983474;28;20413;-62
2022/06/02 05:18:49;;;;;;;3.03;2.00;;;;;;;17.16;65.84;100284.81;5009435;28;20278;-62
2022/06/02 05:21:37;;;;;;;5.13;2.40;;;;;;;17.16;64.79;100285.69;5010993;28;20064;-62
2022/06/02 05:24:30;;;;;;;4.28;1.92;;;;;;;17.18;65.06;100281.09;5011135;28;20763;-62
2022/06/02 05:27:04;;;;;;;3.67;2.42;;;;;;;17.14;64.31;100284.91;5010579;28;20450;-62
2022/06/02 05:30:04;;;;;;;3.72;1.88;;;;;;;17.06;63.78;100281.75;5011015;28;20061;-62
2022/06/02 05:32:54;;;;;;;4.40;2.45;;;;;;;17.00;64.55;100288.31;5010966;28;20028;-62
2022/06/02 05:35:37;;;;;;;5.45;1.83;;;;;;;17.04;64.78;100284.53;5010719;28;20033;-62
2022/06/02 05:38:11;;;;;;;4.60;2.10;;;;;;;17.18;65.13;100286.47;5010626;28;20030;-62
2022/06/02 05:40:40;;;;;;;5.55;2.25;;;;;;;17.32;63.64;100278.50;5010757;28;20271;-62
2022/06/02 05:43:32;;;;;;;3.00;1.80;;;;;;;17.73;63.22;100278.88;5010897;28;20517;-62
2022/06/02 05:46:16;;;;;;;3.58;1.98;;;;;;;17.89;61.84;100279.75;5010902;28;20481;-62
2022/06/02 05:48:54;;;;;;;4.15;1.77;;;;;;;18.05;61.46;100286.81;5011015;28;20032;-62
2022/06/02 05:51:49;;;;;;;6.35;2.10;;;;;;;18.23;59.98;100290.25;5010754;28;20030;-61
2022/06/02 05:54:25;;;;;;;3.45;1.67;;;;;;;18.42;59.83;100290.06;5010904;28;20084;-62
2022/06/02 05:57:09;;;;;;;3.47;1.75;;;;;;;18.62;57.28;100281.59;5010680;28;20389;-62
2022/06/02 05:59:44;;;;;;;;;;;;;;;18.77;56.40;100294.16;5011214;28;20276;-62
2022/06/02 06:02:09;;;;;;;5.07;1.75;;;;;;;18.96;55.72;100297.44;5010630;28;19913;-62
2022/06/02 06:05:03;;;;;;;2.47;1.63;;;;;;;19.15;54.73;100293.50;5013453;28;20436;-63
2022/06/02 06:07:34;;;;;;;1.80;1.27;;;;;;;19.41;53.88;100300.81;5013425;28;20397;-62
2022/06/02 06:10:09;;;;;;;2.55;1.50;;;;;;;19.72;55.01;100294.28;5013655;28;20440;-62
2022/06/02 06:12:48;;;;;;;8.90;1.67;;;;;;;19.85;53.71;100299.78;5013977;28;20547;-62
2022/06/02 06:15:37;;;;;;;3.60;1.52;;;;;;;20.17;52.62;100296.69;5013957;28;20025;-62
2022/06/02 06:18:39;;;;;;;3.53;1.70;;;;;;;20.21;53.05;100300.94;5013663;28;20491;-62
2022/06/02 06:21:38;;;;;;;4.20;1.60;;;;;;;20.02;52.50;100303.09;4983150;28;20450;-63
2022/06/02 06:24:30;;;;;;;4.82;1.50;;;;;;;19.93;53.50;100298.31;5010203;28;20073;-63
2022/06/02 06:27:25;;;;;;;2.65;1.30;;;;;;;19.96;52.33;100303.50;5013595;28;20041;-63
2022/06/02 06:30:03;;;;;;;3.40;1.95;;;;;;;20.04;53.19;100308.38;5013687;28;20380;-62
2022/06/02 06:32:51;;;;;;;3.38;1.60;;;;;;;19.90;54.08;100282.28;5014008;28;20033;-62
2022/06/02 06:35:58;;;;;;;3.92;1.52;;;;;;;20.20;53.11;100307.28;5013491;28;20048;-62
2022/06/02 06:38:53;;;;;;;4.53;2.05;;;;;;;20.34;51.49;100301.84;5007780;28;20034;-63
2022/06/02 06:41:37;;;;;;;3.63;2.22;;;;;;;20.43;51.70;100309.28;5013496;28;20030;-63
2022/06/02 06:44:23;;;;;;;;;;;;;;;20.74;50.54;100297.25;5013944;28;20056;-63
2022/06/02 06:47:06;;;;;;;2.60;1.50;;;;;;;20.75;48.62;100304.38;5013255;28;19917;-63
2022/06/02 06:49:41;;;;;;;3.70;1.45;;;;;;;20.80;48.78;100304.94;5013203;28;20334;-64
2022/06/02 06:52:30;;;;;;;4.20;1.52;;;;;;;20.93;48.03;100298.56;5013176;28;20505;-63
2022/06/02 06:55:06;;;;;;;3.50;1.33;;;;;;;21.17;47.59;100306.78;5013330;28;20458;-63
2022/06/02 06:57:48;;;;;;;2.75;1.20;;;;;;;21.43;47.74;100297.66;5013060;28;20033;-63
2022/06/02 07:00:31;;;;;;;5.95;2.30;;;;;;;21.61;47.39;100295.47;5012967;28;20422;-63
2022/06/02 07:03:21;;;;;;;2.83;1.42;;;;;;;21.67;47.80;100301.28;5013380;28;20030;-63
2022/06/02 07:06:09;;;;;;;4.05;1.85;;;;;;;21.83;47.80;100292.91;5012845;28;20030;-63
2022/06/02 07:08:41;;;;;;;2.85;1.40;;;;;;;22.00;46.44;100279.88;5012972;28;20469;-63
2022/06/02 07:12:50;;;;;;;2.78;1.40;;;;;;;22.22;47.58;100289.94;5012827;28;20029;-63
2022/06/02 07:14:04;;;;;;;2.35;1.23;;;;;;;22.59;47.34;100285.28;5012743;28;20050;-63
2022/06/02 07:16:58;;;;;;;4.55;1.15;;;;;;;22.94;44.71;100292.41;5011677;28;20818;-63
2022/06/02 07:19:44;;;;;;;8.65;2.30;;;;;;;23.04;43.97;100298.84;5012690;28;20037;-63
2022/06/02 07:22:24;;;;;;;6.75;1.40;;;;;;;23.14;43.53;100294.41;5012618;28;20493;-63
2022/06/02 07:24:49;;;;;;;3.08;1.13;;;;;;;23.32;44.74;100303.81;5012515;28;20072;-63
2022/06/02 07:27:30;;;;;;;2.50;1.00;;;;;;;23.62;42.34;100305.91;5011884;28;20041;-64
2022/06/02 07:30:01;;;;;;;1.95;1.20;;;;;;;23.89;41.91;100309.06;5011862;28;20541;-64
2022/06/02 07:33:16;;;;;;;2.50;1.02;;;;;;;24.18;41.76;100310.28;5012577;28;20037;-63
2022/06/02 07:35:54;;;;;;;2.92;1.10;;;;;;;24.40;41.06;100312.88;4915070;28;20042;-64
2022/06/02 07:38:38;;;;;;;3.25;1.00;;;;;;;24.42;41.06;100318.19;5012362;28;20501;-64
2022/06/02 07:41:28;;;;;;;3.15;1.17;;;;;;;24.70;40.28;100323.03;5010508;28;20025;-63
2022/06/02 07:44:04;;;;;;;3.00;1.00;;;;;;;24.93;39.02;100318.31;5010307;28;20409;-64
2022/06/02 07:46:35;;;;;;;8.82;1.77;;;;;;;25.27;39.95;100317.97;5010353;28;20032;-63
2022/06/02 07:49:23;;;;;;;2.88;1.08;;;;;;;25.61;40.26;100304.97;5010035;28;20084;-64
2022/06/02 07:52:13;;;;;;;1.40;0.93;;;;;;;25.46;39.90;100318.09;5010727;28;20033;-64
2022/06/02 07:54:51;;;;;;;1.73;0.80;;;;;;;25.57;38.16;100309.81;5010241;28;20022;-64
2022/06/02 07:57:22;;;;;;;1.85;0.98;;;;;;;26.01;38.35;100313.09;5008567;28;20105;-63
2022/06/02 08:00:02;;;;;;;4.07;0.98;;;;;;;25.89;37.25;100304.19;5009371;28;20039;-64
2022/06/02 08:02:49;;;;;;;1.27;0.90;;;;;;;25.96;37.30;100308.94;5009294;28;20034;-64
2022/06/02 08:05:46;;;;;;;4.10;1.10;;;;;;;26.02;37.42;100310.28;5010504;28;20033;-63
2022/06/02 08:08:20;;;;;;;2.22;1.10;;;;;;;26.12;37.82;100310.28;4984124;28;20525;-63
2022/06/02 08:10:58;;;;;;;9.00;1.40;;;;;;;26.44;37.41;100305.44;5009944;28;20060;-63
2022/06/02 08:13:32;;;;;;;1.40;0.90;;;;;;;26.64;36.55;100312.63;5010176;28;20561;-63
2022/06/02 08:16:08;;;;;;;3.13;1.08;;;;;;;26.83;37.25;100323.56;5010131;28;20075;-63
2022/06/02 08:18:34;;;;;;;4.03;1.08;;;;;;;27.00;37.04;100309.16;5009766;28;20025;-64
2022/06/02 08:21:20;;;;;;;2.30;0.90;;;;;;;27.23;35.50;100318.75;5010297;28;20437;-64
2022/06/02 08:24:27;;;;;;;2.00;0.95;;;;;;;27.16;35.12;100314.88;5010170;28;20034;-64
2022/06/02 08:27:01;;;;;;;3.25;1.05;;;;;;;27.20;34.67;100313.53;5009969;28;20038;-64
2022/06/02 08:29:48;;;;;;;1.95;1.00;;;;;;;27.26;35.54;100321.16;5011988;28;20080;-64
2022/06/02 08:32:33;;;;;;;4.20;1.10;;;;;;;27.44;35.67;100313.94;5010874;28;20036;-64
2022/06/02 08:35:45;;;;;;;4.13;1.20;;;;;;;28.02;35.39;100315.41;5009962;28;20028;-64
2022/06/02 08:39:02;;;;;;;1.83;0.77;;;;;;;28.14;34.57;100324.25;4974133;28;20460;-65
2022/06/02 08:41:52;;;;;;;1.83;0.70;;;;;;;28.22;35.10;100319.72;4976393;28;20041;-64
2022/06/02 08:44:40;;;;;;;1.25;0.82;;;;;;;28.23;34.33;100316.00;5010645;28;20393;-64
2022/06/02 08:47:32;;;;;;;3.05;0.80;;;;;;;28.48;33.49;100321.72;5010987;28;20141;-64
2022/06/02 08:50:34;;;;;;;1.52;0.63;;;;;;;28.48;33.50;100322.56;5010924;28;20030;-64
2022/06/02 08:53:15;;;;;;;2.47;0.88;;;;;;;28.35;34.28;100317.47;5011111;28;20525;-64
2022/06/02 08:55:53;;;;;;;1.27;0.73;;;;;;;28.29;32.58;100318.09;5009593;28;20030;-65
2022/06/02 08:58:30;;;;;;;1.70;0.95;;;;;;;28.19;34.42;100328.25;5009634;28;20053;-64
2022/06/02 09:01:01;;;;;;;2.40;0.80;;;;;;;28.35;33.89;100316.63;5009771;28;20043;-64
2022/06/02 09:03:45;;;;;;;3.25;1.00;;;;;;;28.54;33.84;100316.50;5009831;28;20064;-64
2022/06/02 09:06:26;;;;;;;;;;;;;;;28.43;33.36;100308.50;5010090;28;20515;-65
2022/06/02 09:09:05;;;;;;;1.20;0.70;;;;;;;28.72;33.78;100313.75;5010013;28;19913;-65
2022/06/02 09:11:46;;;;;;;2.83;0.75;;;;;;;28.80;31.65;100305.63;5010950;28;20044;-65
2022/06/02 09:14:46;;;;;;;1.90;0.95;;;;;;;29.01;32.39;100317.09;5010924;28;20049;-64
2022/06/02 09:17:27;;;;;;;3.53;1.00;;;;;;;28.65;32.86;100312.69;4997856;28;20513;-64
2022/06/02 09:20:14;;;;;;;1.65;0.90;;;;;;;28.44;32.69;100305.59;5008797;28;20476;-64
2022/06/02 09:22:54;;;;;;;1.67;0.55;;;;;;;28.79;31.71;100298.41;5008979;28;20030;-64
2022/06/02 09:25:38;;;;;;;2.90;0.73;;;;;;;29.14;31.48;100306.59;5009150;28;20402;-64
2022/06/02 09:28:25;;;;;;;2.17;1.00;;;;;;;29.09;32.03;100311.69;4988398;28;20034;-64
2022/06/02 09:31:26;;;;;;;1.00;0.60;;;;;;;29.27;31.94;100309.75;4988863;28;20023;-64
2022/06/02 09:34:00;;;;;;;4.82;0.80;;;;;;;28.80;32.26;100317.41;4989856;28;20434;-64
2022/06/02 09:36:47;;;;;;;1.75;0.60;;;;;;;28.60;32.88;100310.38;4989863;28;20524;-64
2022/06/02 09:39:33;;;;;;;0.88;0.60;;;;;;;27.78;32.78;100308.75;5009504;28;20064;-64
2022/06/02 09:42:29;;;;;;;2.30;0.85;;;;;;;28.15;34.49;100313.19;5013363;28;20265;-64
2022/06/02 09:44:57;;;;;;;1.35;0.85;;;;;;;28.72;32.82;100319.22;5014539;28;20025;-64
2022/06/02 09:47:53;;;;;;;0.90;0.70;;;;;;;28.82;32.42;100309.03;5014489;28;20555;-64
2022/06/02 09:50:31;;;;;;;1.98;0.80;;;;;;;28.92;33.87;100304.31;5014306;28;20452;-64
2022/06/02 09:53:24;;;;;;;2.72;0.85;;;;;;;29.23;31.91;100301.00;5014190;28;20029;-64
2022/06/02 09:56:14;;;;;;;2.00;0.90;;;;;;;29.81;33.90;100292.94;5014318;28;20040;-64
2022/06/02 09:58:55;;;;;;;1.80;0.85;;;;;;;30.06;31.81;100302.97;5014322;28;20112;-64
2022/06/02 10:01:25;;;;;;;3.63;1.17;;;;;;;29.88;32.37;100296.75;5014309;28;20393;-65
2022/06/02 10:04:10;;;;;;;1.27;0.80;;;;;;;29.51;31.23;100301.66;5014146;28;20030;-64
2022/06/02 10:06:53;;;;;;;2.25;0.80;;;;;;;29.17;31.97;100303.53;5014474;28;20069;-64
2022/06/02 10:09:39;;;;;;;;;;;;;;;29.03;31.64;100304.06;5014352;28;20026;-64
2022/06/02 10:12:58;;;;;;;3.38;0.90;;;;;;;28.98;32.71;100298.22;4981805;28;19909;-64
2022/06/02 10:15:42;;;;;;;1.63;0.98;;;;;;;29.27;34.15;100294.19;5009005;28;20036;-64
2022/06/02 10:18:35;;;;;;;1.33;0.80;;;;;;;29.49;31.08;100282.63;5013594;28;20076;-64
2022/06/02 10:21:15;;;;;;;3.23;0.90;;;;;;;29.70;32.81;100287.75;5013790;28;20045;-64
2022/06/02 10:24:06;;;;;;;2.20;0.73;;;;;;;29.65;32.23;100292.84;5013917;28;20663;-64
2022/06/02 10:26:39;;;;;;;1.85;0.70;;;;;;;29.46;31.50;100290.31;5013940;28;20413;-63
2022/06/02 10:29:05;;;;;;;4.00;1.58;;;;;;;29.67;33.17;100295.44;4996286;28;20057;-64
2022/06/02 10:31:42;;;;;;;2.55;1.08;;;;;;;30.21;32.49;100290.31;5013637;28;20076;-64
2022/06/02 10:34:26;;;;;;;0.90;0.50;;;;;;;30.64;30.75;100284.53;5014202;28;20061;-64
2022/06/02 10:37:03;;;;;;;1.90;0.90;;;;;;;30.39;30.57;100287.47;5013997;28;20041;-65
2022/06/02 10:39:47;;;;;;;4.97;0.77;;;;;;;30.51;31.16;100275.97;4996149;28;20556;-64
2022/06/02 10:42:28;;;;;;;0.80;0.60;;;;;;;30.57;30.30;100277.16;5013866;28;20144;-65
2022/06/02 10:45:17;;;;;;;1.75;1.02;;;;;;;30.61;30.81;100273.91;4994986;28;20041;-65
2022/06/02 10:47:45;;;;;;;1.42;0.80;;;;;;;30.54;32.03;100280.28;5013590;28;20467;-64
2022/06/02 10:50:39;;;;;;;7.15;2.22;;;;;;;30.92;31.50;100274.13;5013103;28;20033;-64
2022/06/02 10:53:32;;;;;;;1.30;0.70;;;;;;;31.19;29.24;100283.84;5013368;28;20030;-64
2022/06/02 10:56:08;;;;;;;1.27;0.70;;;;;;;31.03;29.67;100281.13;5012594;28;20109;-64
2022/06/02 10:58:54;;;;;;;0.77;0.57;;;;;;;31.28;30.80;100285.56;5011445;28;20041;-64
2022/06/02 11:01:41;;;;;;;3.33;0.70;;;;;;;31.66;29.75;100273.78;5009587;28;20026;-64
2022/06/02 11:04:34;;;;;;;2.15;0.70;;;;;;;31.78;30.44;100272.34;4993309;28;20030;-64
2022/06/02 11:07:30;;;;;;;2.88;1.00;;;;;;;32.16;29.76;100265.97;4993228;28;20500;-64
2022/06/02 11:10:07;;;;;;;1.35;0.70;;;;;;;32.37;29.08;100268.06;4975681;28;20037;-65
2022/06/02 11:13:07;;;;;;;1.48;0.70;;;;;;;32.29;28.62;100266.22;4993485;28;20030;-65
2022/06/02 11:16:02;;;;;;;0.90;0.57;;;;;;;32.11;29.42;100261.00;4999516;28;20032;-65
2022/06/02 11:18:55;;;;;;;2.30;0.80;;;;;;;31.65;28.40;100250.91;5012744;28;20041;-65
2022/06/02 11:21:59;;;;;;;2.50;0.77;;;;;;;30.71;29.63;100244.38;5012558;28;20053;-65
2022/06/02 11:25:01;;;;;;;1.48;0.80;;;;;;;30.87;29.83;100238.91;5011831;28;20121;-65
2022/06/02 11:27:49;;;;;;;3.25;1.33;;;;;;;30.90;29.65;100237.69;5007637;28;20068;-64
2022/06/02 11:30:44;;;;;;;1.30;0.77;;;;;;;30.56;30.66;100246.09;5010927;28;20486;-64
2022/06/02 11:33:14;;;;;;;2.17;0.70;;;;;;;30.94;30.51;100252.78;5011262;28;20505;-64
2022/06/02 11:36:21;;;;;;;3.13;0.75;;;;;;;30.71;30.43;100244.38;5011190;28;20025;-64
2022/06/02 11:38:59;;;;;;;1.35;1.02;;;;;;;30.16;30.84;100226.84;4982589;28;20516;-64
2022/06/02 11:41:45;;;;;;;3.58;0.90;;;;;;;30.23;30.73;100227.06;5012328;28;20090;-64
2022/06/02 11:44:13;;;;;;;1.95;0.70;;;;;;;30.49;30.49;100250.59;5012174;28;20076;-64
2022/06/02 11:47:06;;;;;;;1.02;0.60;;;;;;;30.22;30.70;100242.66;5012754;28;20132;-64
2022/06/02 11:49:50;;;;;;;2.50;0.95;;;;;;;30.32;30.57;100248.84;5011922;28;20498;-64
2022/06/02 11:52:39;;;;;;;2.10;0.70;;;;;;;30.71;31.67;100238.03;5012035;28;20026;-64
2022/06/02 11:55:18;;;;;;;0.95;0.75;;;;;;;30.70;30.15;100231.69;5012196;28;20033;-64
2022/06/02 11:58:01;;;;;;;1.38;0.77;;;;;;;30.40;30.63;100234.25;5012154;28;20076;-64
2022/06/02 12:00:48;;;;;;;1.85;0.57;;;;;;;30.44;31.19;100224.66;5011803;28;20026;-66
2022/06/02 12:03:32;;;;;;;0.80;0.60;;;;;;;29.94;30.05;100221.13;5012070;28;20060;-65
2022/06/02 12:06:25;;;;;;;1.58;1.02;;;;;;;29.83;32.15;100207.72;5011819;28;20489;-64
2022/06/02 12:09:17;;;;;;;3.15;0.80;;;;;;;29.83;32.57;100204.97;5011796;28;20058;-64
2022/06/02 12:11:59;;;;;;;1.52;1.15;;;;;;;29.75;32.78;100205.84;4992479;28;20042;-64
2022/06/02 12:14:49;;;;;;;2.45;0.90;;;;;;;29.85;32.97;100205.69;4992109;28;20022;-64
2022/06/02 12:17:33;;;;;;;1.25;0.80;;;;;;;29.82;33.17;100209.59;5000895;28;20022;-64
2022/06/02 12:20:09;;;;;;;2.45;0.95;;;;;;;29.69;31.10;100211.97;5011730;28;20028;-64
2022/06/02 12:22:41;;;;;;;0.90;0.70;;;;;;;29.92;32.13;100213.06;5011685;28;20037;-63
2022/06/02 12:25:31;;;;;;;2.85;0.80;;;;;;;30.07;32.19;100225.09;5011353;28;20096;-62
2022/06/02 12:28:00;;;;;;;1.27;0.70;;;;;;;30.08;32.24;100224.09;5011736;28;20101;-63
2022/06/02 12:31:03;;;;;;;3.00;0.95;;;;;;;29.96;31.55;100219.94;5011808;28;20033;-62
2022/06/02 12:33:47;;;;;;;3.80;1.00;;;;;;;29.73;31.52;100218.84;4931733;29;20494;-62
2022/06/02 12:36:33;;;;;;;0.63;0.50;;;;;;;29.38;31.87;100216.28;4931685;29;20043;-62
2022/06/02 12:39:20;;;;;;;2.88;0.90;;;;;;;29.05;32.54;100234.41;4989492;28;20042;-62
2022/06/02 12:42:16;;;;;;;1.50;0.90;;;;;;;28.89;32.92;100233.44;5010975;28;20385;-62
2022/06/02 12:45:12;;;;;;;1.42;0.70;;;;;;;28.89;32.37;100233.44;4992544;28;20401;-62
2022/06/02 12:48:20;;;;;;;7.43;1.48;;;;;;;29.16;32.90;100222.34;5010789;28;20045;-63
2022/06/02 12:51:09;;;;;;;2.22;0.90;;;;;;;29.31;32.85;100209.72;5003053;28;20033;-63
2022/06/02 12:54:07;;;;;;;2.25;0.77;;;;;;;29.49;31.10;100210.50;5011333;28;20128;-63